Time;durP1;ratioP1;P1;durP2;ratioP2;P2;SDS_P1;SDS_P2;PMS_P1;PMS_P2;Temp;Humidity;BMP_temperature;BMP_pressure;BME280_temperature;BME280_humidity;BME280_pressure;Samples;Min_cycle;Max_cycle;Signal;HPM_P1;HPM_P2
2023/08/14 00:00:44;;;;;;;1.88;1.63;;;21.50;56.30;;;;;;5015779;28;20069;-53
2023/08/14 00:03:13;;;;;;;2.92;1.85;;;21.50;57.00;;;;;;5014891;28;20420;-55
2023/08/14 00:05:42;;;;;;;3.28;1.95;;;21.40;56.40;;;;;;5013626;28;20522;-53
2023/08/14 00:08:09;;;;;;;4.00;2.08;;;21.40;56.30;;;;;;5002717;28;20046;-54
2023/08/14 00:10:36;;;;;;;4.78;2.25;;;21.40;56.60;;;;;;5013531;28;20120;-53
2023/08/14 00:13:03;;;;;;;4.38;2.05;;;21.40;57.40;;;;;;5013608;28;20474;-54
2023/08/14 00:15:29;;;;;;;2.58;2.00;;;21.40;57.20;;;;;;5013818;28;20046;-52
2023/08/14 00:18:00;;;;;;;2.78;2.00;;;21.30;57.10;;;;;;5014687;28;20038;-54
2023/08/14 00:20:26;;;;;;;2.92;1.92;;;21.30;57.10;;;;;;5015014;28;20051;-52
2023/08/14 00:22:54;;;;;;;2.83;1.75;;;21.30;57.00;;;;;;5014048;28;20042;-53
2023/08/14 00:25:24;;;;;;;2.97;2.17;;;21.30;57.00;;;;;;5020008;28;20068;-52
2023/08/14 00:27:50;;;;;;;5.00;1.95;;;21.30;57.00;;;;;;5014094;28;20555;-54
2023/08/14 00:30:19;;;;;;;4.28;1.42;;;21.20;56.70;;;;;;5017497;28;20125;-53
2023/08/14 00:32:51;;;;;;;2.10;1.57;;;21.20;56.80;;;;;;5011353;28;20590;-54
2023/08/14 00:35:18;;;;;;;3.80;1.95;;;21.20;56.70;;;;;;5009367;28;20942;-51
2023/08/14 00:37:47;;;;;;;5.10;2.00;;;21.10;56.90;;;;;;4998632;28;20452;-52
2023/08/14 00:40:16;;;;;;;4.25;1.90;;;21.10;57.00;;;;;;5009171;28;20049;-55
2023/08/14 00:42:45;;;;;;;5.72;2.25;;;21.10;57.00;;;;;;4985161;28;20158;-51
2023/08/14 00:45:14;;;;;;;2.15;1.48;;;21.10;57.00;;;;;;5011945;28;20069;-52
2023/08/14 00:47:48;;;;;;;2.25;1.75;;;21.00;56.90;;;;;;5005638;28;20039;-53
2023/08/14 00:50:16;;;;;;;2.33;1.90;;;21.00;57.00;;;;;;4997844;28;20046;-54
2023/08/14 00:52:49;;;;;;;5.00;3.45;;;21.00;57.10;;;;;;5003572;28;20121;-55
2023/08/14 00:55:19;;;;;;;4.55;2.05;;;20.90;57.40;;;;;;4998192;28;20057;-52
2023/08/14 00:57:52;;;;;;;2.10;1.83;;;20.90;57.20;;;;;;5010257;28;20045;-52
2023/08/14 01:00:19;;;;;;;2.97;2.03;;;20.90;57.20;;;;;;5011517;28;20053;-53
2023/08/14 01:02:48;;;;;;;2.05;1.83;;;20.90;57.20;;;;;;5001963;28;20440;-51
2023/08/14 01:05:15;;;;;;;7.55;2.00;;;20.80;57.30;;;;;;5004470;28;20058;-54
2023/08/14 01:07:44;;;;;;;2.55;1.80;;;20.80;57.30;;;;;;5015161;28;20040;-54
2023/08/14 01:10:11;;;;;;;6.30;2.20;;;20.70;57.40;;;;;;5013141;28;20046;-54
2023/08/14 01:12:54;;;;;;;3.78;2.20;;;20.70;57.50;;;;;;4991622;28;20059;-55
2023/08/14 01:15:28;;;;;;;2.72;2.10;;;20.70;58.00;;;;;;5015290;28;20512;-55
2023/08/14 01:17:59;;;;;;;4.97;2.00;;;20.70;58.40;;;;;;5014636;28;20572;-53
2023/08/14 01:20:30;;;;;;;4.80;2.45;;;20.70;58.60;;;;;;5013596;28;20055;-52
2023/08/14 01:23:06;;;;;;;4.18;2.83;;;20.60;58.50;;;;;;5013974;28;20062;-55
2023/08/14 01:25:37;;;;;;;4.07;2.67;;;20.70;59.10;;;;;;5019063;28;20054;-54
2023/08/14 01:28:08;;;;;;;2.60;1.95;;;20.60;58.60;;;;;;5020385;28;20100;-53
2023/08/14 01:30:39;;;;;;;3.65;2.15;;;20.60;58.60;;;;;;5019389;28;20054;-53
2023/08/14 01:33:06;;;;;;;3.45;2.33;;;20.60;58.70;;;;;;5004690;28;20045;-53
2023/08/14 01:35:44;;;;;;;2.05;1.92;;;20.60;58.50;;;;;;4994798;28;20042;-53
2023/08/14 01:38:27;;;;;;;2.22;1.70;;;20.60;59.00;;;;;;5012591;28;20488;-53
2023/08/14 01:41:05;;;;;;;2.42;2.05;;;20.60;58.70;;;;;;5008002;28;20045;-53
2023/08/14 01:43:39;;;;;;;4.75;2.35;;;20.60;58.20;;;;;;5011516;28;20038;-54
2023/08/14 01:46:08;;;;;;;4.25;2.13;;;20.50;58.20;;;;;;5002850;28;20038;-52
2023/08/14 01:48:40;;;;;;;3.72;2.15;;;20.50;58.30;;;;;;4995567;28;20484;-52
2023/08/14 01:51:09;;;;;;;2.80;2.10;;;20.50;58.20;;;;;;5020835;28;20038;-54
2023/08/14 01:53:36;;;;;;;3.35;1.80;;;20.40;58.20;;;;;;5017784;28;20041;-52
2023/08/14 01:56:05;;;;;;;4.40;2.33;;;20.40;58.20;;;;;;5019829;28;20069;-54
2023/08/14 01:58:35;;;;;;;2.95;2.38;;;20.40;58.20;;;;;;4996471;28;20049;-52
2023/08/14 02:01:01;;;;;;;2.67;2.05;;;20.40;58.40;;;;;;5010729;28;20500;-51
2023/08/14 02:03:28;;;;;;;4.07;2.20;;;20.30;58.10;;;;;;4996772;28;20512;-54
2023/08/14 02:05:55;;;;;;;3.40;2.17;;;20.30;58.20;;;;;;5014694;28;20042;-54
2023/08/14 02:08:22;;;;;;;4.15;2.10;;;20.30;59.00;;;;;;4999098;28;20068;-50
2023/08/14 02:10:48;;;;;;;3.35;2.22;;;20.30;58.50;;;;;;5014808;28;20041;-51
2023/08/14 02:13:16;;;;;;;3.53;2.20;;;20.20;58.40;;;;;;5012070;28;20042;-52
2023/08/14 02:15:46;;;;;;;3.60;2.28;;;20.20;58.50;;;;;;5020028;28;20055;-51
2023/08/14 02:18:13;;;;;;;2.55;1.90;;;20.10;58.60;;;;;;5016858;28;20052;-53
2023/08/14 02:20:54;;;;;;;3.78;1.88;;;20.10;58.50;;;;;;5032706;23;20054;-48
2023/08/14 02:23:21;;;;;;;2.15;1.70;;;20.10;58.90;;;;;;5009405;28;20129;-48
2023/08/14 02:25:54;;;;;;;1.83;1.73;;;20.10;58.50;;;;;;5014023;28;20505;-49
2023/08/14 02:28:23;;;;;;;5.25;3.25;;;20.00;58.70;;;;;;5010557;28;20044;-49
2023/08/14 02:30:49;;;;;;;5.82;2.28;;;20.00;58.50;;;;;;4998523;28;20038;-48
2023/08/14 02:33:17;;;;;;;2.22;2.03;;;20.00;58.50;;;;;;5016351;28;20049;-48
2023/08/14 02:35:43;;;;;;;2.17;1.75;;;19.90;58.50;;;;;;5011522;28;20053;-48
2023/08/14 02:38:11;;;;;;;2.15;1.75;;;19.90;58.60;;;;;;5012288;28;20137;-47
2023/08/14 02:40:43;;;;;;;4.18;2.20;;;19.90;58.80;;;;;;5011177;28;20041;-48
2023/08/14 02:43:13;;;;;;;4.18;1.95;;;19.90;58.80;;;;;;5010438;28;20627;-49
2023/08/14 02:45:42;;;;;;;3.45;1.73;;;19.80;58.80;;;;;;5002045;28;20058;-48
2023/08/14 02:48:14;;;;;;;3.70;2.70;;;19.80;59.00;;;;;;5002549;28;20587;-49
2023/08/14 02:50:42;;;;;;;11.32;2.55;;;19.80;59.10;;;;;;5010381;28;20038;-47
2023/08/14 02:53:11;;;;;;;2.30;2.10;;;19.70;59.10;;;;;;5010870;28;20570;-48
2023/08/14 02:55:38;;;;;;;1.88;1.77;;;19.70;59.30;;;;;;5001680;28;20108;-48
2023/08/14 02:58:06;;;;;;;2.95;2.65;;;19.70;59.30;;;;;;5002604;28;20088;-47
2023/08/14 03:00:32;;;;;;;2.00;1.58;;;19.70;59.40;;;;;;4994692;28;20500;-48
2023/08/14 03:02:59;;;;;;;2.72;2.10;;;19.70;59.30;;;;;;5017655;28;20049;-47
2023/08/14 03:05:28;;;;;;;5.88;1.85;;;19.70;59.40;;;;;;4997600;28;20050;-49
2023/08/14 03:07:54;;;;;;;1.92;1.83;;;19.60;59.50;;;;;;5011788;28;20046;-47
2023/08/14 03:10:26;;;;;;;4.40;1.92;;;19.60;59.40;;;;;;4993735;28;20057;-49
2023/08/14 03:12:58;;;;;;;2.30;1.52;;;19.60;59.30;;;;;;5009971;28;20145;-49
2023/08/14 03:15:25;;;;;;;2.40;2.20;;;19.60;59.40;;;;;;4995313;28;20042;-48
2023/08/14 03:17:53;;;;;;;1.80;1.65;;;19.50;59.30;;;;;;5011069;28;20129;-49
2023/08/14 03:20:19;;;;;;;3.40;2.53;;;19.50;59.30;;;;;;5001324;28;20058;-49
2023/08/14 03:22:49;;;;;;;5.25;2.00;;;19.50;59.40;;;;;;4994315;28;20042;-50
2023/08/14 03:25:18;;;;;;;3.13;1.83;;;19.50;59.40;;;;;;5004495;28;20049;-48
2023/08/14 03:27:48;;;;;;;3.65;2.42;;;19.50;59.40;;;;;;5002432;28;20084;-49
2023/08/14 03:30:17;;;;;;;2.28;2.08;;;19.40;59.40;;;;;;5009209;28;20049;-51
2023/08/14 03:32:44;;;;;;;2.20;2.10;;;19.40;59.50;;;;;;5009101;28;20045;-51
2023/08/14 03:35:13;;;;;;;2.95;1.67;;;19.40;59.40;;;;;;4991188;28;20046;-49
2023/08/14 03:37:43;;;;;;;3.65;1.63;;;19.40;59.60;;;;;;4993384;28;20076;-48
2023/08/14 03:40:11;;;;;;;2.50;1.88;;;19.30;59.50;;;;;;4989451;28;20136;-49
2023/08/14 03:42:38;;;;;;;2.33;1.60;;;19.30;59.50;;;;;;5001847;28;20084;-51
2023/08/14 03:45:07;;;;;;;2.15;1.95;;;19.30;59.60;;;;;;5009962;28;20041;-52
2023/08/14 03:47:34;;;;;;;6.18;2.80;;;19.30;59.60;;;;;;5010515;28;20523;-51
2023/08/14 03:50:08;;;;;;;3.47;2.00;;;19.20;59.70;;;;;;5008982;28;20045;-50
2023/08/14 03:52:36;;;;;;;3.05;1.98;;;19.20;59.80;;;;;;5008895;28;20173;-51
2023/08/14 03:55:05;;;;;;;2.75;1.83;;;19.20;59.70;;;;;;4998709;28;20133;-50
2023/08/14 03:57:31;;;;;;;6.65;2.33;;;19.20;59.80;;;;;;4993751;28;20552;-48
2023/08/14 03:59:59;;;;;;;1.95;1.67;;;19.10;59.80;;;;;;4992540;28;20046;-50
2023/08/14 04:02:38;;;;;;;1.48;1.38;;;19.10;59.70;;;;;;5009533;28;20145;-49
2023/08/14 04:05:11;;;;;;;2.55;1.65;;;19.10;59.60;;;;;;5002367;28;20491;-48
2023/08/14 04:07:38;;;;;;;10.63;2.65;;;19.10;59.60;;;;;;4996929;28;20452;-49
2023/08/14 04:10:07;;;;;;;3.35;1.60;;;19.10;59.60;;;;;;5009955;28;20053;-53
2023/08/14 04:12:37;;;;;;;4.50;2.08;;;19.00;59.80;;;;;;5003283;28;20137;-48
2023/08/14 04:15:19;;;;;;;3.90;1.80;;;19.00;60.00;;;;;;5002556;28;20084;-48
2023/08/14 04:17:45;;;;;;;2.60;1.88;;;19.00;60.50;;;;;;4995771;28;20463;-49
2023/08/14 04:20:12;;;;;;;2.00;1.45;;;19.00;59.80;;;;;;4998026;28;20065;-49
2023/08/14 04:22:39;;;;;;;4.70;2.55;;;18.90;59.90;;;;;;5001004;28;20519;-50
2023/08/14 04:25:06;;;;;;;2.30;1.92;;;18.90;60.00;;;;;;4992157;28;20068;-52
2023/08/14 04:27:35;;;;;;;3.15;1.95;;;18.90;60.80;;;;;;4986102;28;20519;-50
2023/08/14 04:30:05;;;;;;;2.72;1.80;;;18.90;60.30;;;;;;4987859;28;20050;-48
2023/08/14 04:32:32;;;;;;;3.33;1.90;;;18.90;60.30;;;;;;5009187;28;20045;-52
2023/08/14 04:35:00;;;;;;;3.70;1.90;;;18.90;60.30;;;;;;4989409;28;20056;-48
2023/08/14 04:37:27;;;;;;;5.70;1.80;;;18.80;60.40;;;;;;4992951;28;20065;-49
2023/08/14 04:39:54;;;;;;;5.60;2.20;;;18.80;60.40;;;;;;4991353;28;20159;-51
2023/08/14 04:42:21;;;;;;;5.00;2.03;;;18.80;61.10;;;;;;4989812;28;20053;-51
2023/08/14 04:44:47;;;;;;;4.05;2.47;;;18.80;60.50;;;;;;5013451;28;20045;-50
2023/08/14 04:47:14;;;;;;;2.63;1.70;;;18.80;60.50;;;;;;5004326;28;20062;-48
2023/08/14 04:49:41;;;;;;;3.60;2.20;;;18.80;60.70;;;;;;5003048;28;20054;-51
2023/08/14 04:52:07;;;;;;;2.65;2.13;;;18.80;60.90;;;;;;5006220;28;20045;-48
2023/08/14 04:54:34;;;;;;;3.78;2.60;;;18.80;61.00;;;;;;4990513;28;20404;-52
2023/08/14 04:57:01;;;;;;;2.25;1.90;;;18.80;61.10;;;;;;5006278;28;20042;-52
2023/08/14 04:59:28;;;;;;;3.38;1.90;;;18.80;61.30;;;;;;4997567;28;20045;-52
2023/08/14 05:01:58;;;;;;;2.20;1.70;;;18.80;61.40;;;;;;4997754;28;20511;-52
2023/08/14 05:04:25;;;;;;;5.00;1.85;;;18.80;61.50;;;;;;4991256;28;20512;-52
2023/08/14 05:06:52;;;;;;;3.70;2.00;;;18.80;61.60;;;;;;4997973;28;20093;-51
2023/08/14 05:09:19;;;;;;;4.20;1.98;;;18.90;61.80;;;;;;4998731;28;20081;-51
2023/08/14 05:11:53;;;;;;;5.70;2.65;;;18.90;62.00;;;;;;5008324;28;20054;-51
2023/08/14 05:14:20;;;;;;;4.63;2.33;;;18.90;62.20;;;;;;5002859;28;20038;-52
2023/08/14 05:16:47;;;;;;;3.58;2.55;;;19.00;62.40;;;;;;5008059;28;20038;-51
2023/08/14 05:19:14;;;;;;;3.03;1.90;;;19.00;62.50;;;;;;5000650;28;20052;-52
2023/08/14 05:21:42;;;;;;;2.95;2.50;;;19.00;62.70;;;;;;5002450;28;20054;-50
2023/08/14 05:24:09;;;;;;;5.20;2.55;;;19.10;62.80;;;;;;4985586;28;20049;-52
2023/08/14 05:26:35;;;;;;;3.70;2.47;;;19.10;63.00;;;;;;5007584;28;20055;-52
2023/08/14 05:29:02;;;;;;;3.50;2.25;;;19.20;63.10;;;;;;5007009;28;20447;-51
2023/08/14 05:31:29;;;;;;;3.33;2.40;;;19.30;63.30;;;;;;5007912;28;20041;-53
2023/08/14 05:33:56;;;;;;;4.25;3.85;;;19.40;63.30;;;;;;5006798;28;20042;-51
2023/08/14 05:36:23;;;;;;;4.50;2.67;;;19.50;63.60;;;;;;5008015;28;20046;-53
2023/08/14 05:38:50;;;;;;;6.18;2.65;;;19.50;63.50;;;;;;5007803;28;20076;-52
2023/08/14 05:41:18;;;;;;;5.68;2.85;;;19.60;63.60;;;;;;5008002;28;20663;-53
2023/08/14 05:43:45;;;;;;;5.43;2.40;;;19.70;63.80;;;;;;4991088;28;20046;-52
2023/08/14 05:46:13;;;;;;;2.65;2.35;;;19.70;64.00;;;;;;5005747;28;20049;-52
2023/08/14 05:48:39;;;;;;;4.15;2.80;;;19.80;64.00;;;;;;5007645;28;20041;-52
2023/08/14 05:51:06;;;;;;;4.30;2.42;;;19.90;64.10;;;;;;5009264;28;20132;-52
2023/08/14 05:53:33;;;;;;;3.65;3.00;;;20.00;64.20;;;;;;5007709;28;20128;-53
2023/08/14 05:55:59;;;;;;;3.30;2.80;;;20.10;64.10;;;;;;5007062;28;20113;-52
2023/08/14 05:58:26;;;;;;;4.97;3.35;;;20.20;64.10;;;;;;5006782;28;20068;-52
2023/08/14 06:00:53;;;;;;;4.65;2.35;;;20.20;64.10;;;;;;5007635;28;20524;-53
2023/08/14 06:03:20;;;;;;;4.30;2.55;;;20.30;64.10;;;;;;5007016;28;20054;-52
2023/08/14 06:06:04;;;;;;;3.95;2.80;;;20.40;64.00;;;;;;5009528;28;20057;-51
2023/08/14 06:08:31;;;;;;;4.25;2.70;;;20.50;63.90;;;;;;5010649;28;20112;-51
2023/08/14 06:10:58;;;;;;;3.70;2.67;;;20.60;63.80;;;;;;5008910;28;20081;-53
2023/08/14 06:13:25;;;;;;;4.32;2.60;;;20.60;63.70;;;;;;5004887;28;20499;-52
2023/08/14 06:15:51;;;;;;;3.53;2.42;;;20.70;63.80;;;;;;5010990;28;20536;-52
2023/08/14 06:18:18;;;;;;;3.88;2.70;;;20.80;63.90;;;;;;5012101;28;20037;-52
2023/08/14 06:20:45;;;;;;;5.00;3.08;;;20.80;63.60;;;;;;5012823;28;20050;-52
2023/08/14 06:23:12;;;;;;;4.65;2.40;;;20.90;63.50;;;;;;5017645;28;20069;-49
2023/08/14 06:25:38;;;;;;;4.32;2.72;;;20.90;63.40;;;;;;5016678;28;20124;-52
2023/08/14 06:28:05;;;;;;;7.88;3.05;;;20.90;63.30;;;;;;5011180;28;20050;-51
2023/08/14 06:30:32;;;;;;;3.55;2.50;;;21.00;63.40;;;;;;5010898;28;20568;-52
2023/08/14 06:32:59;;;;;;;2.42;2.15;;;21.00;63.40;;;;;;5010197;28;20074;-52
2023/08/14 06:35:26;;;;;;;5.43;2.83;;;21.10;63.20;;;;;;5010382;28;20045;-50
2023/08/14 06:37:53;;;;;;;4.38;2.58;;;21.10;63.50;;;;;;5011208;28;20057;-52
2023/08/14 06:40:19;;;;;;;6.78;2.78;;;21.10;63.40;;;;;;5012020;28;20080;-48
2023/08/14 06:42:46;;;;;;;4.57;2.58;;;21.10;63.40;;;;;;5009599;28;20064;-53
2023/08/14 06:45:13;;;;;;;5.13;3.10;;;21.20;63.60;;;;;;5011141;28;20077;-52
2023/08/14 06:47:45;;;;;;;3.60;2.28;;;21.20;63.70;;;;;;5010698;28;20046;-53
2023/08/14 06:50:13;;;;;;;4.30;2.53;;;21.20;63.80;;;;;;5012741;28;20505;-51
2023/08/14 06:52:40;;;;;;;3.08;2.38;;;21.20;63.60;;;;;;5009531;28;20050;-52
2023/08/14 06:55:07;;;;;;;3.95;2.55;;;21.30;63.60;;;;;;5011795;28;20042;-49
2023/08/14 06:57:34;;;;;;;4.20;2.13;;;21.30;63.50;;;;;;5010415;28;20038;-52
2023/08/14 07:00:08;;;;;;;6.00;2.55;;;21.40;63.50;;;;;;5010729;28;20037;-52
2023/08/14 07:02:35;;;;;;;5.45;2.38;;;21.40;63.70;;;;;;5010343;28;20042;-52
2023/08/14 07:05:02;;;;;;;4.55;2.25;;;21.50;63.30;;;;;;5011519;28;20042;-53
2023/08/14 07:07:28;;;;;;;6.85;2.20;;;21.50;63.20;;;;;;5007953;28;20052;-52
2023/08/14 07:09:56;;;;;;;4.10;2.10;;;21.50;63.30;;;;;;5011698;28;20068;-52
2023/08/14 07:12:23;;;;;;;5.07;2.47;;;21.50;63.00;;;;;;5010008;28;20042;-51
2023/08/14 07:14:49;;;;;;;5.30;2.50;;;21.50;62.90;;;;;;5009720;28;20073;-51
2023/08/14 07:17:17;;;;;;;5.00;2.10;;;21.50;62.70;;;;;;5009814;28;20117;-52
2023/08/14 07:19:44;;;;;;;3.15;2.25;;;21.50;63.30;;;;;;5011717;28;20113;-51
2023/08/14 07:22:10;;;;;;;3.20;2.40;;;21.50;62.90;;;;;;5016237;28;20046;-53
2023/08/14 07:24:38;;;;;;;4.57;2.40;;;21.50;63.00;;;;;;5009063;28;20444;-50
2023/08/14 07:27:05;;;;;;;3.20;2.10;;;21.50;63.10;;;;;;5010288;28;20077;-52
2023/08/14 07:29:32;;;;;;;3.97;2.08;;;21.50;63.30;;;;;;5009080;28;20128;-52
2023/08/14 07:32:02;;;;;;;3.63;2.10;;;21.50;63.30;;;;;;5010172;28;20045;-52
2023/08/14 07:34:28;;;;;;;4.43;2.20;;;21.50;63.10;;;;;;5009691;28;20045;-52
2023/08/14 07:36:55;;;;;;;4.68;2.05;;;21.50;63.40;;;;;;5009564;28;20068;-53
2023/08/14 07:39:22;;;;;;;4.85;2.85;;;21.60;63.20;;;;;;5009140;28;20515;-52
2023/08/14 07:41:49;;;;;;;1.98;1.85;;;21.60;63.30;;;;;;5010496;28;20572;-53
2023/08/14 07:44:16;;;;;;;5.82;2.25;;;21.60;63.20;;;;;;5009669;28;20050;-51
2023/08/14 07:46:42;;;;;;;4.50;2.17;;;21.60;63.20;;;;;;5009252;28;20052;-53
2023/08/14 07:49:09;;;;;;;5.32;2.35;;;21.70;63.10;;;;;;5011698;28;20099;-53
2023/08/14 07:51:36;;;;;;;5.18;2.47;;;21.70;63.20;;;;;;5010145;28;20045;-53
2023/08/14 07:54:03;;;;;;;3.85;2.33;;;21.70;63.40;;;;;;5009323;28;20041;-52
2023/08/14 07:56:30;;;;;;;3.95;2.70;;;21.70;63.40;;;;;;5009939;28;20069;-51
2023/08/14 07:58:56;;;;;;;6.65;2.60;;;21.70;63.30;;;;;;5009360;28;20049;-50
2023/08/14 08:01:23;;;;;;;4.05;2.80;;;21.70;63.50;;;;;;5009579;28;20072;-53
2023/08/14 08:03:50;;;;;;;3.92;2.58;;;21.70;63.90;;;;;;5009772;28;20048;-53
2023/08/14 08:06:16;;;;;;;7.57;3.83;;;21.70;63.60;;;;;;5009403;28;20465;-52
2023/08/14 08:08:43;;;;;;;4.07;2.28;;;21.70;63.70;;;;;;4986052;28;20501;-53
2023/08/14 08:11:13;;;;;;;5.47;2.40;;;21.70;63.90;;;;;;5009317;28;20455;-53
2023/08/14 08:13:40;;;;;;;8.30;2.33;;;21.70;63.80;;;;;;5007546;28;20046;-53
2023/08/14 08:16:08;;;;;;;4.13;2.58;;;21.70;63.90;;;;;;5000203;28;20038;-52
2023/08/14 08:18:35;;;;;;;5.78;2.95;;;21.80;63.90;;;;;;5010465;28;20041;-53
2023/08/14 08:21:02;;;;;;;2.22;1.67;;;21.80;63.60;;;;;;5009727;28;20038;-53
2023/08/14 08:23:29;;;;;;;5.65;2.15;;;21.80;63.30;;;;;;5010584;28;20687;-52
2023/08/14 08:25:56;;;;;;;3.25;2.10;;;21.90;63.30;;;;;;5009233;28;20095;-53
2023/08/14 08:28:22;;;;;;;2.58;1.77;;;21.90;63.60;;;;;;5007606;28;21286;-53
2023/08/14 08:30:49;;;;;;;4.20;2.20;;;21.90;63.60;;;;;;5008162;28;20092;-53
2023/08/14 08:33:16;;;;;;;3.35;2.25;;;22.00;63.60;;;;;;5008829;28;20042;-53
2023/08/14 08:35:52;;;;;;;4.28;1.98;;;22.00;63.20;;;;;;5004755;28;20045;-53
2023/08/14 08:38:22;;;;;;;6.45;2.22;;;22.00;63.30;;;;;;5008206;28;20069;-52
2023/08/14 08:40:49;;;;;;;5.32;2.42;;;22.10;63.00;;;;;;5009834;28;20129;-52
2023/08/14 08:43:16;;;;;;;4.45;1.80;;;22.20;63.10;;;;;;5007365;28;20048;-53
2023/08/14 08:45:49;;;;;;;6.63;2.20;;;22.20;63.20;;;;;;5007937;28;20033;-53
2023/08/14 08:48:20;;;;;;;3.10;1.85;;;22.30;63.40;;;;;;5001730;28;20402;-52
2023/08/14 08:50:49;;;;;;;4.57;2.17;;;22.30;63.90;;;;;;5005039;28;20455;-53
2023/08/14 08:53:20;;;;;;;2.88;1.70;;;22.40;62.60;;;;;;5008885;28;20280;-53
2023/08/14 08:55:46;;;;;;;5.82;1.90;;;22.40;62.90;;;;;;5002953;28;20038;-53
2023/08/14 08:58:15;;;;;;;5.28;2.28;;;22.50;62.40;;;;;;5008639;28;20389;-53
2023/08/14 09:00:43;;;;;;;2.17;1.40;;;22.50;62.80;;;;;;5008282;28;20127;-53
2023/08/14 09:03:12;;;;;;;4.70;2.25;;;22.60;62.60;;;;;;5008901;28;20038;-52
2023/08/14 09:05:41;;;;;;;3.13;1.63;;;22.70;62.50;;;;;;5009586;28;20109;-52
2023/08/14 09:08:10;;;;;;;4.95;1.70;;;22.70;62.70;;;;;;5008719;28;20519;-53
2023/08/14 09:10:37;;;;;;;2.63;1.52;;;22.80;63.20;;;;;;5010274;28;20121;-53
2023/08/14 09:13:04;;;;;;;4.75;1.52;;;22.90;62.20;;;;;;5008672;28;20459;-52
2023/08/14 09:15:40;;;;;;;3.80;1.98;;;23.00;62.60;;;;;;5002831;28;20558;-52
2023/08/14 09:18:09;;;;;;;6.53;1.95;;;23.00;62.50;;;;;;5008493;28;20104;-52
2023/08/14 09:20:35;;;;;;;3.55;2.13;;;23.10;62.10;;;;;;5005694;28;20042;-53
2023/08/14 09:23:02;;;;;;;3.25;1.67;;;23.20;62.00;;;;;;5005480;28;20451;-53
2023/08/14 09:25:30;;;;;;;2.88;1.20;;;23.20;61.70;;;;;;5010042;28;20041;-53
2023/08/14 09:27:57;;;;;;;8.02;1.60;;;23.30;61.70;;;;;;5008460;28;20038;-53
2023/08/14 09:30:26;;;;;;;2.58;1.40;;;23.40;60.60;;;;;;5007319;28;20057;-51
2023/08/14 09:32:55;;;;;;;4.28;1.48;;;23.40;61.40;;;;;;5004005;28;20038;-52
2023/08/14 09:35:22;;;;;;;4.22;1.40;;;23.50;60.00;;;;;;5009468;28;20052;-53
2023/08/14 09:37:48;;;;;;;4.40;1.55;;;23.60;60.00;;;;;;5008173;28;20062;-49
2023/08/14 09:40:16;;;;;;;2.17;1.13;;;23.60;59.80;;;;;;5011653;28;20045;-53
2023/08/14 09:42:45;;;;;;;2.17;1.08;;;23.70;59.70;;;;;;5011800;28;20120;-51
2023/08/14 09:45:14;;;;;;;5.47;0.93;;;23.80;59.30;;;;;;5013156;28;20053;-53
2023/08/14 09:47:43;;;;;;;2.97;1.42;;;23.80;58.80;;;;;;5010827;28;20448;-52
2023/08/14 09:50:13;;;;;;;;;;;23.90;58.80;;;;;;5013940;28;20045;-53
2023/08/14 09:52:41;;;;;;;1.80;1.10;;;24.00;58.60;;;;;;5011808;28;19925;-52
2023/08/14 09:55:09;;;;;;;2.50;1.67;;;24.10;57.90;;;;;;5012329;28;20451;-52
2023/08/14 09:57:37;;;;;;;4.35;1.25;;;24.10;57.50;;;;;;5006188;28;20046;-53
2023/08/14 10:00:05;;;;;;;3.65;1.20;;;24.20;57.10;;;;;;5012136;28;20117;-55
2023/08/14 10:02:37;;;;;;;1.70;1.02;;;24.30;56.90;;;;;;5011612;28;20045;-52
2023/08/14 10:05:09;;;;;;;5.13;1.33;;;24.40;56.70;;;;;;5013031;28;20065;-53
2023/08/14 10:07:38;;;;;;;3.00;0.90;;;24.50;56.10;;;;;;5010939;28;20041;-53
2023/08/14 10:10:08;;;;;;;4.13;1.20;;;24.50;56.00;;;;;;5013863;28;20049;-53
2023/08/14 10:12:53;;;;;;;3.13;1.00;;;24.60;55.10;;;;;;5009777;28;20069;-52
2023/08/14 10:15:32;;;;;;;2.35;1.33;;;24.70;54.90;;;;;;5009461;28;20078;-53
2023/08/14 10:18:03;;;;;;;2.53;1.05;;;24.80;54.60;;;;;;5011337;28;20037;-52
2023/08/14 10:20:35;;;;;;;3.55;1.40;;;24.80;54.50;;;;;;5009026;28;20419;-53
2023/08/14 10:23:02;;;;;;;2.65;1.13;;;24.90;54.50;;;;;;5010573;28;20724;-53
2023/08/14 10:25:29;;;;;;;1.98;0.90;;;25.00;54.10;;;;;;5010977;28;20077;-52
2023/08/14 10:27:56;;;;;;;1.63;0.95;;;25.10;54.20;;;;;;5011107;28;20441;-53
2023/08/14 10:30:24;;;;;;;2.88;1.13;;;25.10;53.60;;;;;;5009676;28;20081;-53
2023/08/14 10:32:52;;;;;;;1.67;1.02;;;25.10;53.10;;;;;;5006191;28;20092;-53
2023/08/14 10:35:23;;;;;;;2.90;1.40;;;25.20;53.30;;;;;;5010581;28;20096;-52
2023/08/14 10:37:51;;;;;;;3.03;0.90;;;25.30;53.80;;;;;;5009784;28;20038;-53
2023/08/14 10:40:35;;;;;;;2.60;1.10;;;25.40;53.60;;;;;;5009414;28;20042;-52
2023/08/14 10:43:04;;;;;;;2.03;0.95;;;25.40;52.30;;;;;;5005739;28;20518;-52
2023/08/14 10:45:31;;;;;;;3.75;1.20;;;25.50;52.20;;;;;;5009756;28;20046;-53
2023/08/14 10:48:00;;;;;;;2.85;1.27;;;25.60;52.20;;;;;;5008172;28;20038;-52
2023/08/14 10:50:30;;;;;;;1.48;1.00;;;25.60;52.30;;;;;;5009727;28;20057;-53
2023/08/14 10:52:58;;;;;;;1.75;1.30;;;25.70;52.20;;;;;;5009918;28;20053;-53
2023/08/14 10:55:46;;;;;;;2.17;0.82;;;25.70;51.70;;;;;;5006065;28;20045;-53
2023/08/14 10:58:29;;;;;;;3.72;1.13;;;25.80;51.60;;;;;;5010456;28;20042;-54
2023/08/14 11:00:55;;;;;;;;;;;25.90;51.90;;;;;;5011792;28;20038;-53
2023/08/14 11:03:22;;;;;;;1.92;0.90;;;26.00;52.50;;;;;;5010021;28;19925;-53
2023/08/14 11:05:49;;;;;;;4.30;0.90;;;26.00;52.10;;;;;;5009934;28;20042;-53
2023/08/14 11:08:16;;;;;;;2.90;1.45;;;26.10;51.80;;;;;;5009764;28;20089;-53
2023/08/14 11:10:44;;;;;;;3.47;1.35;;;26.20;51.70;;;;;;5011341;28;20408;-53
2023/08/14 11:13:11;;;;;;;1.70;1.05;;;26.20;50.70;;;;;;4998471;28;20132;-53
2023/08/14 11:15:39;;;;;;;2.97;1.10;;;26.20;49.60;;;;;;5009993;28;20037;-53
2023/08/14 11:18:11;;;;;;;2.35;1.23;;;26.30;50.00;;;;;;5011969;28;20480;-53
2023/08/14 11:20:41;;;;;;;3.25;1.40;;;26.40;50.00;;;;;;5011361;28;20531;-53
2023/08/14 11:23:09;;;;;;;4.13;1.52;;;26.50;50.30;;;;;;5005928;28;20097;-53
2023/08/14 11:25:37;;;;;;;2.42;1.13;;;26.60;50.50;;;;;;5010397;28;20046;-53
2023/08/14 11:28:04;;;;;;;1.92;0.75;;;26.60;49.60;;;;;;5011953;28;20038;-53
2023/08/14 11:30:33;;;;;;;2.55;1.17;;;26.80;49.90;;;;;;5008678;28;20093;-53
2023/08/14 11:33:06;;;;;;;2.83;1.45;;;26.80;49.40;;;;;;5010119;28;20129;-52
2023/08/14 11:35:32;;;;;;;2.83;1.33;;;26.90;49.50;;;;;;5009898;28;20061;-53
2023/08/14 11:37:59;;;;;;;2.08;1.00;;;27.10;50.00;;;;;;5011910;28;20062;-52
2023/08/14 11:40:26;;;;;;;3.00;1.17;;;27.10;48.50;;;;;;5009265;28;20785;-53
2023/08/14 11:42:54;;;;;;;2.70;1.48;;;27.20;48.30;;;;;;5009974;28;20111;-53
2023/08/14 11:45:24;;;;;;;2.22;0.95;;;27.30;49.10;;;;;;5009147;28;20050;-53
2023/08/14 11:47:51;;;;;;;2.55;1.38;;;27.40;48.70;;;;;;5010031;28;20050;-53
2023/08/14 11:50:18;;;;;;;2.70;1.30;;;27.50;48.90;;;;;;5010410;28;20046;-53
2023/08/14 11:52:45;;;;;;;3.00;1.17;;;27.50;49.10;;;;;;5009318;28;20057;-53
2023/08/14 11:55:13;;;;;;;2.00;1.38;;;27.60;49.10;;;;;;5009057;28;20108;-53
2023/08/14 11:57:43;;;;;;;4.28;1.55;;;27.60;48.00;;;;;;5010870;28;20042;-53
2023/08/14 12:00:13;;;;;;;4.88;1.38;;;27.70;47.60;;;;;;5007557;28;20670;-53
2023/08/14 12:02:43;;;;;;;3.13;1.58;;;27.80;48.90;;;;;;5004966;28;20046;-54
2023/08/14 12:05:10;;;;;;;3.05;1.38;;;27.90;48.00;;;;;;5009398;28;20125;-53
2023/08/14 12:07:41;;;;;;;4.20;1.48;;;28.00;48.90;;;;;;5009659;28;20550;-53
2023/08/14 12:10:09;;;;;;;4.80;1.92;;;28.00;47.90;;;;;;5010692;28;20092;-53
2023/08/14 12:12:37;;;;;;;2.35;1.33;;;28.10;48.20;;;;;;5009490;28;20046;-53
2023/08/14 12:15:21;;;;;;;2.25;1.33;;;28.20;48.70;;;;;;5008684;28;20045;-53
2023/08/14 12:17:53;;;;;;;2.95;1.40;;;28.30;48.30;;;;;;5010072;28;20061;-53
2023/08/14 12:20:22;;;;;;;3.08;1.58;;;28.30;48.00;;;;;;5009138;28;20564;-52
2023/08/14 12:22:49;;;;;;;4.03;1.80;;;28.40;48.20;;;;;;5008800;28;20038;-52
2023/08/14 12:25:28;;;;;;;5.28;1.83;;;28.60;47.90;;;;;;5009405;28;20139;-53
2023/08/14 12:27:55;;;;;;;1.70;0.98;;;28.70;47.40;;;;;;5006493;28;20042;-53
2023/08/14 12:30:21;;;;;;;2.22;1.30;;;28.80;47.30;;;;;;5007601;28;20508;-53
2023/08/14 12:32:48;;;;;;;2.70;1.48;;;28.80;47.30;;;;;;5009109;28;20081;-53
2023/08/14 12:35:16;;;;;;;2.97;1.63;;;28.90;47.80;;;;;;5008356;28;20548;-53
2023/08/14 12:37:42;;;;;;;2.03;1.27;;;29.10;47.40;;;;;;5010119;28;20038;-51
2023/08/14 12:40:10;;;;;;;4.43;1.40;;;29.20;47.20;;;;;;5009316;28;20070;-53
2023/08/14 12:42:37;;;;;;;3.35;1.90;;;29.20;47.30;;;;;;5008800;28;20128;-53
2023/08/14 12:45:05;;;;;;;4.80;1.27;;;29.30;47.00;;;;;;5008584;28;20168;-53
2023/08/14 12:47:32;;;;;;;3.85;1.65;;;29.40;46.90;;;;;;5010267;28;20046;-53
2023/08/14 12:49:59;;;;;;;2.85;1.55;;;29.50;46.70;;;;;;5003999;28;20060;-53
2023/08/14 12:52:25;;;;;;;3.30;1.60;;;29.60;46.90;;;;;;5003433;28;20045;-53
2023/08/14 12:54:55;;;;;;;4.07;1.52;;;29.70;47.90;;;;;;5006644;28;20042;-53